EW4424 Weather Reports


Display with metric or nautical units.
time (UTC)temp
F
wind
direction
speed
MPH
gust
MPH
rain 1hr
in
rain 24hr
in
rain mn
in
humidity
%
barometer
mb
20210513100003 72 131 0.0 1.0 0.00 0.00 0.00 24 1011.5
20210513094503 71 132 0.0 1.0 0.00 0.00 0.00 24 1011.4
20210513093004 72 92 0.0 1.0 0.00 0.00 0.00 25 1011.4
20210513091504 71 108 0.0 2.0 0.00 0.00 0.00 27 1011.4
20210513090004 71 0 0.0 0.0 0.00 0.00 0.00 27 1011.3
20210513084504 73 78 0.0 2.0 0.00 0.00 0.00 25 1011.1
20210513083004 75 0 0.0 0.0 0.00 0.00 0.00 21 1011.1
20210513081505 75 57 0.0 2.0 0.00 0.00 0.00 22 1011.1
20210513080005 74 54 0.0 2.0 0.00 0.00 0.00 23 1011.2
20210513074505 73 0 0.0 0.0 0.00 0.00 0.00 25 1011.2
20210513073005 73 0 0.0 0.0 0.00 0.00 0.00 25 1011.2
20210513071505 75 21 0.0 1.0 0.00 0.00 0.00 24 1011.2
20210513070005 76 0 0.0 0.0 0.00 0.00 0.00 22 1011.0
20210513064505 78 0 0.0 0.0 0.00 0.00 0.00 22 1010.9
20210513063004 79 224 0.0 4.0 0.00 0.00 0.00 23 1010.9
20210513061503 76 0 0.0 1.0 0.00 0.00 0.00 24 1010.5
20210513060003 77 214 0.0 1.0 0.00 0.00 0.00 24 1010.4
20210513054503 77 0 0.0 0.0 0.00 0.00 0.00 24 1010.4
20210513053005 76 223 0.0 1.0 0.00 0.00 0.00 25 1010.4
20210513051509 79 225 0.0 1.0 0.00 0.00 0.00 23 1010.3
20210513050003 79 0 0.0 0.0 0.00 0.00 0.00 23 1010.2
20210513044505 80 216 0.0 1.0 0.00 0.00 0.00 22 1010.2
20210513043004 81 0 0.0 0.0 0.00 0.00 0.00 21 1010.1
20210513041503 82 220 0.0 1.0 0.00 0.00 0.00 20 1009.9
20210513040005 84 208 0.0 1.0 0.00 0.00 0.00 15 1009.8
20210513034503 84 279 0.0 2.0 0.00 0.00 0.00 15 1009.6
20210513033003 83 207 0.0 1.0 0.00 0.00 0.00 18 1009.5
20210513031504 85 0 0.0 1.0 0.00 0.00 0.00 16 1009.3
20210513030004 87 215 0.0 1.0 0.00 0.00 0.00 13 1009.3
20210513024505 89 219 0.0 1.0 0.00 0.00 0.00 13 1009.2
20210513023005 91 220 0.0 1.0 0.00 0.00 0.00 10 1009.1
20210513021504 94 218 0.0 1.0 0.00 0.00 0.00 7 1009.0
20210513020004 96 244 0.0 1.0 0.00 0.00 0.00 6 1009.0
20210513014504 98 209 0.0 3.0 0.00 0.00 0.00 5 1008.8
20210513013004 98 149 0.0 2.0 0.00 0.00 0.00 5 1008.6
20210513011504 100 245 1.0 3.0 0.00 0.00 0.00 5 1008.8
20210513010004 100 221 1.0 4.0 0.00 0.00 0.00 4 1008.8
20210513004505 100 241 2.0 6.0 0.00 0.00 0.00 4 1008.7
20210513003004 101 215 2.0 6.0 0.00 0.00 0.00 4 1008.6
20210513001503 100 240 3.0 7.0 0.00 0.00 0.00 5 1008.8
20210513000005 99 263 2.0 9.0 0.00 0.00 0.00 6 1008.8
20210512234504 98 262 4.0 10.0 0.00 0.00 0.00 6 1009.0
20210512233003 100 182 0.0 3.0 0.00 0.00 0.00 5 1009.1
20210512231503 99 262 2.0 8.0 0.00 0.00 0.00 6 1009.3
20210512230003 99 292 1.0 7.0 0.00 0.00 0.00 5 1009.2
20210512224504 99 251 4.0 7.0 0.00 0.00 0.00 5 1009.4
20210512223005 99 238 2.0 7.0 0.00 0.00 0.00 5 1009.6
20210512221504 99 234 2.0 8.0 0.00 0.00 0.00 7 1009.7
20210512220004 99 259 2.0 7.0 0.00 0.00 0.00 7 1010.0
20210512214503 98 229 3.0 8.0 0.00 0.00 0.00 7 1010.2
20210512213003 99 122 2.0 5.0 0.00 0.00 0.00 8 1010.4
20210512211504 99 181 3.0 9.0 0.00 0.00 0.00 7 1010.6
20210512210005 99 227 3.0 7.0 0.00 0.00 0.00 7 1010.8
20210512204504 97 265 2.0 8.0 0.00 0.00 0.00 8 1011.0
20210512203004 97 205 1.0 4.0 0.00 0.00 0.00 8 1011.2
20210512201505 95 257 4.0 9.0 0.00 0.00 0.00 9 1011.3
20210512200004 94 98 2.0 5.0 0.00 0.00 0.00 9 1011.5
20210512194505 95 257 3.0 6.0 0.00 0.00 0.00 8 1011.7
20210512193005 95 244 3.0 6.0 0.00 0.00 0.00 9 1011.9
20210512191504 93 244 2.0 6.0 0.00 0.00 0.00 10 1012.0
20210512190005 92 260 2.0 5.0 0.00 0.00 0.00 10 1012.1
20210512184504 92 221 2.0 6.0 0.00 0.00 0.00 11 1012.2
20210512183004 91 267 2.0 6.0 0.00 0.00 0.00 12 1012.4
20210512181503 90 219 1.0 5.0 0.00 0.00 0.00 12 1012.6
20210512180005 90 14 0.0 5.0 0.00 0.00 0.00 12 1012.7
20210512174506 89 69 1.0 4.0 0.00 0.00 0.00 12 1012.9
20210512173003 88 101 1.0 3.0 0.00 0.00 0.00 13 1012.9
20210512171504 87 105 1.0 5.0 0.00 0.00 0.00 14 1012.9
20210512170004 86 75 0.0 1.0 0.00 0.00 0.00 16 1013.0
20210512164504 85 83 0.0 3.0 0.00 0.00 0.00 16 1013.0
20210512163003 83 85 1.0 3.0 0.00 0.00 0.00 16 1013.0
20210512161504 84 257 1.0 3.0 0.00 0.00 0.00 16 1013.0
20210512160003 82 132 0.0 2.0 0.00 0.00 0.00 17 1012.9
20210512154503 81 52 0.0 2.0 0.00 0.00 0.00 17 1012.9
20210512153005 80 271 0.0 1.0 0.00 0.00 0.00 17 1012.8
20210512151504 78 238 0.0 1.0 0.00 0.00 0.00 18 1012.7
20210512150003 77 37 0.0 1.0 0.00 0.00 0.00 18 1012.7
20210512144505 74 355 0.0 1.0 0.00 0.00 0.00 19 1012.6
20210512143004 74 32 0.0 1.0 0.00 0.00 0.00 19 1012.4
20210512141504 72 83 0.0 1.0 0.00 0.00 0.00 20 1012.4
20210512140005 70 90 0.0 1.0 0.00 0.00 0.00 20 1012.0
20210512134505 70 118 0.0 1.0 0.00 0.00 0.00 19 1011.9
20210512133004 69 0 0.0 0.0 0.00 0.00 0.00 19 1011.7
20210512131505 67 106 0.0 1.0 0.00 0.00 0.00 21 1011.6
20210512130004 65 97 0.0 1.0 0.00 0.00 0.00 22 1011.2
20210512124504 64 80 0.0 2.0 0.00 0.00 0.00 23 1010.9
20210512123005 64 77 1.0 3.0 0.00 0.00 0.00 26 1010.7
20210512121505 63 109 0.0 2.0 0.00 0.00 0.00 29 1010.6
20210512120005 64 133 0.0 1.0 0.00 0.00 0.00 33 1010.5
20210512114503 64 0 0.0 0.0 0.00 0.00 0.00 36 1010.4
20210512113003 65 142 0.0 1.0 0.00 0.00 0.00 37 1010.1
20210512111503 65 0 0.0 1.0 0.00 0.00 0.00 37 1009.9
20210512110003 65 0 0.0 0.0 0.00 0.00 0.00 36 1009.7
20210512104503 65 163 0.0 2.0 0.00 0.00 0.00 36 1009.6
20210512103003 65 0 0.0 0.0 0.00 0.00 0.00 35 1009.5
20210512101503 65 0 0.0 0.0 0.00 0.00 0.00 34 1009.4